createdAt,value
2023-01-18T00:01:14.295Z,99051.72
2023-01-18T00:03:42.773Z,99060.59
2023-01-18T00:06:12.395Z,99068.47
2023-01-18T00:08:42.449Z,99065.94
2023-01-18T00:11:12.538Z,99064.34
2023-01-18T00:13:42.432Z,99049.03
2023-01-18T00:16:14.321Z,99061.78
2023-01-18T00:18:42.632Z,99063.75
2023-01-18T00:21:12.545Z,99061.16
2023-01-18T00:23:40.601Z,99062.13
2023-01-18T00:26:11.949Z,99070.88
2023-01-18T00:28:42.152Z,99070.13
2023-01-18T00:31:11.473Z,99069.78
2023-01-18T00:33:39.729Z,99065.19
2023-01-18T00:36:08.391Z,99073.81
2023-01-18T00:38:36.408Z,99080.81
2023-01-18T00:41:04.454Z,99069.78
2023-01-18T00:43:40.526Z,99078.41
2023-01-18T00:46:11.879Z,99072.31
2023-01-18T00:48:41.128Z,99070.25
2023-01-18T00:51:10.450Z,99086.16
2023-01-18T00:53:39.276Z,99086.16
2023-01-18T00:56:08.869Z,99087.38
2023-01-18T00:58:37.594Z,99082.28
2023-01-18T01:01:06.587Z,99090.28
2023-01-18T01:03:50.044Z,99084.34
2023-01-18T01:06:39.253Z,99083.59
2023-01-18T01:09:07.301Z,99088.19
2023-01-18T01:11:35.265Z,99089.06
2023-01-18T01:14:20.876Z,99081.63
2023-01-18T01:17:05.920Z,99093.16
2023-01-18T01:19:52.712Z,99095.84
2023-01-18T01:22:38.219Z,99088.78
2023-01-18T01:25:24.391Z,99089.00
2023-01-18T01:27:53.579Z,99088.28
2023-01-18T01:30:21.630Z,99098.72
2023-01-18T01:32:49.721Z,99100.53
2023-01-18T01:35:19.252Z,99091.69
2023-01-18T01:37:47.219Z,99100.41
2023-01-18T01:40:15.185Z,99100.28
2023-01-18T01:42:43.259Z,99101.38
2023-01-18T01:45:12.460Z,99091.06
2023-01-18T01:47:43.266Z,99097.00
2023-01-18T01:50:20.997Z,99094.81
2023-01-18T01:52:49.799Z,99102.59
2023-01-18T01:55:24.039Z,99104.53
2023-01-18T01:57:56.858Z,99111.81
2023-01-18T02:00:26.071Z,99110.94
2023-01-18T02:02:57.452Z,99114.69
2023-01-18T02:05:27.780Z,99121.63
2023-01-18T02:07:59.595Z,99123.53
2023-01-18T02:10:27.797Z,99111.41
2023-01-18T02:12:57.029Z,99117.38
2023-01-18T02:15:33.452Z,99111.28
2023-01-18T02:18:15.684Z,99115.03
2023-01-18T02:21:14.394Z,99115.03
2023-01-18T02:24:20.518Z,99124.88
2023-01-18T02:27:00.844Z,99122.06
2023-01-18T02:29:46.330Z,99127.41
2023-01-18T02:32:24.956Z,99125.31
2023-01-18T02:35:00.697Z,99133.81
2023-01-18T02:37:40.665Z,99141.72
2023-01-18T02:40:17.138Z,99142.66
2023-01-18T02:43:04.470Z,99137.59
2023-01-18T02:45:59.670Z,99132.38
2023-01-18T02:48:34.786Z,99145.47
2023-01-18T02:51:03.031Z,99147.38
2023-01-18T02:53:32.271Z,99140.38
2023-01-18T02:56:06.480Z,99144.97
2023-01-18T02:58:38.663Z,99145.72
2023-01-18T03:01:11.914Z,99135.50
2023-01-18T03:03:42.564Z,99136.22
2023-01-18T03:06:10.845Z,99144.09
2023-01-18T03:08:42.234Z,99134.75
2023-01-18T03:11:15.921Z,99136.34
2023-01-18T03:13:50.296Z,99137.06
2023-01-18T03:16:22.880Z,99143.25
2023-01-18T03:19:01.625Z,99135.38
2023-01-18T03:21:42.020Z,99149.22
2023-01-18T03:24:11.319Z,99145.78
2023-01-18T03:26:41.902Z,99142.16
2023-01-18T03:29:31.066Z,99143.25
2023-01-18T03:32:21.987Z,99142.50
2023-01-18T03:34:55.635Z,99151.25
2023-01-18T03:37:30.589Z,99148.84
2023-01-18T03:40:02.741Z,99148.91
2023-01-18T03:42:35.806Z,99156.38
2023-01-18T03:45:09.987Z,99162.53
2023-01-18T03:47:40.263Z,99159.03
2023-01-18T03:50:09.337Z,99155.50
2023-01-18T03:52:42.722Z,99164.13
2023-01-18T03:55:17.221Z,99168.38
2023-01-18T03:57:50.309Z,99162.44
2023-01-18T04:00:19.453Z,99163.91
2023-01-18T04:02:50.666Z,99157.97
2023-01-18T04:05:19.850Z,99167.44
2023-01-18T04:07:48.227Z,99167.53
2023-01-18T04:10:16.317Z,99161.59
2023-01-18T04:12:44.508Z,99168.50
2023-01-18T04:15:13.139Z,99170.94
2023-01-18T04:17:41.256Z,99170.72
2023-01-18T04:20:12.373Z,99168.25
2023-01-18T04:22:40.294Z,99162.94
2023-01-18T04:25:08.746Z,99175.22
2023-01-18T04:27:36.822Z,99170.94
2023-01-18T04:30:06.403Z,99170.94
2023-01-18T04:35:18.114Z,99178.72
2023-01-18T04:37:52.976Z,99174.22
2023-01-18T04:40:21.032Z,99166.69
2023-01-18T04:42:54.326Z,99170.34
2023-01-18T04:45:22.368Z,99184.91
2023-01-18T04:47:50.334Z,99186.72
2023-01-18T04:50:19.963Z,99191.31
2023-01-18T04:52:48.154Z,99199.31
2023-01-18T04:55:16.709Z,99192.28
2023-01-18T04:57:45.112Z,99203.47
2023-01-18T05:00:15.619Z,99188.66
2023-01-18T05:02:43.703Z,99186.94
2023-01-18T05:05:11.753Z,99188.56
2023-01-18T05:07:41.181Z,99198.16
2023-01-18T05:10:10.233Z,99199.72
2023-01-18T05:12:38.458Z,99209.19
2023-01-18T05:15:07.698Z,99202.28
2023-01-18T05:17:36.140Z,99213.56
2023-01-18T05:20:06.504Z,99216.03
2023-01-18T05:22:34.932Z,99207.41
2023-01-18T05:25:04.842Z,99210.78
2023-01-18T05:27:32.911Z,99209.19
2023-01-18T05:30:02.061Z,99223.16
2023-01-18T05:32:30.059Z,99214.53
2023-01-18T05:34:58.035Z,99218.06
2023-01-18T05:37:26.023Z,99219.88
2023-01-18T05:39:53.967Z,99219.75
2023-01-18T05:42:23.425Z,99218.06
2023-01-18T05:44:51.517Z,99214.16
2023-01-18T05:47:19.520Z,99236.75
2023-01-18T05:49:47.514Z,99236.84
2023-01-18T05:52:15.537Z,99218.75
2023-01-18T05:54:43.527Z,99223.22
2023-01-18T05:57:11.930Z,99234.41
2023-01-18T05:59:41.282Z,99239.75
2023-01-18T06:02:09.276Z,99250.31
2023-01-18T06:04:37.368Z,99238.25
2023-01-18T06:07:05.407Z,99240.91
2023-01-18T06:09:33.411Z,99238.38
2023-01-18T06:12:01.472Z,99242.00
2023-01-18T06:14:29.461Z,99261.22
2023-01-18T06:16:58.895Z,99267.59
2023-01-18T06:19:26.861Z,99249.28
2023-01-18T06:21:54.886Z,99255.47
2023-01-18T06:24:22.801Z,99256.53
2023-01-18T06:26:50.833Z,99266.97
2023-01-18T06:29:18.843Z,99263.47
2023-01-18T06:31:46.969Z,99276.69
2023-01-18T06:34:16.581Z,99268.16
2023-01-18T06:36:45.446Z,99275.97
2023-01-18T06:39:13.712Z,99277.44
2023-01-18T06:41:41.879Z,99275.72
2023-01-18T06:44:10.166Z,99280.72
2023-01-18T06:46:38.193Z,99276.47
2023-01-18T06:49:09.199Z,99290.56
2023-01-18T06:51:38.922Z,99292.16
2023-01-18T06:54:07.191Z,99295.78
2023-01-18T06:56:35.254Z,99300.25
2023-01-18T06:59:03.475Z,99296.84
2023-01-18T07:01:31.504Z,99296.63
2023-01-18T07:04:00.074Z,99309.00
2023-01-18T07:06:28.362Z,99303.66
2023-01-18T07:08:57.756Z,99310.28
2023-01-18T07:11:26.231Z,99316.25
2023-01-18T07:13:54.225Z,99310.84
2023-01-18T07:16:22.521Z,99317.31
2023-01-18T07:18:51.107Z,99316.59
2023-01-18T07:21:20.376Z,99328.75
2023-01-18T07:23:48.374Z,99318.63
2023-01-18T07:26:18.736Z,99329.50
2023-01-18T07:28:48.142Z,99332.25
2023-01-18T07:31:17.393Z,99325.25
2023-01-18T07:33:45.775Z,99334.72
2023-01-18T07:36:14.103Z,99340.06
2023-01-18T07:38:42.819Z,99346.34
2023-01-18T07:41:14.408Z,99347.19
2023-01-18T07:43:45.004Z,99355.09
2023-01-18T07:46:16.052Z,99346.59
2023-01-18T07:48:44.849Z,99344.75
2023-01-18T07:51:13.058Z,99352.75
2023-01-18T07:53:41.180Z,99366.75
2023-01-18T07:56:13.892Z,99355.56
2023-01-18T07:58:43.660Z,99370.25
2023-01-18T08:01:13.877Z,99372.72
2023-01-18T08:03:43.730Z,99366.94
2023-01-18T08:06:12.829Z,99366.50
2023-01-18T08:08:43.740Z,99379.13
2023-01-18T08:11:12.883Z,99379.22
2023-01-18T08:13:41.719Z,99378.38
2023-01-18T08:16:12.937Z,99385.19
2023-01-18T08:18:41.766Z,99395.78
2023-01-18T08:21:14.770Z,99388.84
2023-01-18T08:23:43.159Z,99398.63
2023-01-18T08:26:12.979Z,99397.38
2023-01-18T08:28:41.741Z,99402.19
2023-01-18T08:31:13.793Z,99403.53
2023-01-18T08:33:45.548Z,99414.22
2023-01-18T08:36:15.767Z,99414.97
2023-01-18T08:38:44.776Z,99416.56
2023-01-18T08:41:12.748Z,99413.78
2023-01-18T08:43:40.821Z,99415.38
2023-01-18T08:46:08.799Z,99406.53
2023-01-18T08:48:38.347Z,99402.25
2023-01-18T08:51:06.829Z,99420.25
2023-01-18T08:53:34.885Z,99425.53
2023-01-18T08:56:05.303Z,99426.34
2023-01-18T08:58:34.141Z,99422.72
2023-01-18T09:01:06.211Z,99426.03
2023-01-18T09:03:34.711Z,99428.47
2023-01-18T09:06:05.161Z,99438.81
2023-01-18T09:08:33.277Z,99432.31
2023-01-18T09:11:03.730Z,99429.00
2023-01-18T09:13:32.199Z,99445.94
2023-01-18T09:16:01.103Z,99444.88
2023-01-18T09:18:30.229Z,99438.69
2023-01-18T09:20:58.674Z,99453.81
2023-01-18T09:23:28.631Z,99455.28
2023-01-18T09:26:05.683Z,99457.63
2023-01-18T09:28:37.358Z,99466.06
2023-01-18T09:31:08.965Z,99471.03
2023-01-18T09:33:43.993Z,99470.63
2023-01-18T09:36:17.315Z,99476.47
2023-01-18T09:38:47.663Z,99460.31
2023-01-18T09:41:27.217Z,99463.38
2023-01-18T09:43:58.341Z,99467.31
2023-01-18T09:46:28.205Z,99475.88
2023-01-18T09:48:59.101Z,99474.41
2023-01-18T09:51:35.632Z,99471.31
2023-01-18T09:54:17.063Z,99469.97
2023-01-18T09:56:52.120Z,99473.53
2023-01-18T09:59:28.626Z,99461.13
2023-01-18T10:01:56.998Z,99465.91
2023-01-18T10:04:30.967Z,99471.53
2023-01-18T10:07:02.104Z,99470.44
2023-01-18T10:09:38.133Z,99471.53
2023-01-18T10:12:18.674Z,99474.22
2023-01-18T10:14:53.335Z,99480.47
2023-01-18T10:17:24.256Z,99480.72
2023-01-18T10:19:52.784Z,99483.03
2023-01-18T10:22:26.630Z,99473.94
2023-01-18T10:25:02.627Z,99485.72
2023-01-18T10:27:48.222Z,99478.19
2023-01-18T10:30:52.540Z,99476.72
2023-01-18T10:33:24.511Z,99469.53
2023-01-18T10:35:56.309Z,99477.97
2023-01-18T10:38:28.559Z,99478.19
2023-01-18T10:41:01.055Z,99482.47
2023-01-18T10:43:30.898Z,99479.91
2023-01-18T10:45:59.466Z,99489.13
2023-01-18T10:48:31.038Z,99482.44
2023-01-18T10:51:00.932Z,99478.53
2023-01-18T10:53:32.216Z,99474.03
2023-01-18T10:56:05.922Z,99478.41
2023-01-18T10:58:43.798Z,99479.84
2023-01-18T11:01:17.272Z,99498.00
2023-01-18T11:03:48.940Z,99492.25
2023-01-18T11:06:19.347Z,99495.78
2023-01-18T11:08:48.206Z,99500.06
2023-01-18T11:11:48.504Z,99499.06
2023-01-18T11:14:28.430Z,99495.88
2023-01-18T11:17:01.276Z,99492.94
2023-01-18T11:19:30.387Z,99502.56
2023-01-18T11:21:58.484Z,99510.22
2023-01-18T11:24:31.545Z,99511.66
2023-01-18T11:27:03.081Z,99499.22
2023-01-18T11:29:33.784Z,99517.72
2023-01-18T11:32:05.459Z,99515.03
2023-01-18T11:34:35.833Z,99517.19
2023-01-18T11:37:04.942Z,99514.50
2023-01-18T11:39:35.619Z,99515.72
2023-01-18T11:42:27.585Z,99518.63
2023-01-18T11:45:16.008Z,99509.47
2023-01-18T11:47:55.409Z,99502.28
2023-01-18T11:50:35.443Z,99510.81
2023-01-18T11:53:17.289Z,99522.72
2023-01-18T11:55:56.577Z,99509.75
2023-01-18T11:58:30.053Z,99511.22
2023-01-18T12:01:12.228Z,99513.38
2023-01-18T12:03:56.278Z,99504.22
2023-01-18T12:06:29.403Z,99514.03
2023-01-18T12:09:11.090Z,99506.53
2023-01-18T12:11:52.447Z,99511.97
2023-01-18T12:14:32.213Z,99513.56
2023-01-18T12:17:16.915Z,99513.44
2023-01-18T12:20:03.902Z,99504.13
2023-01-18T12:23:04.089Z,99508.50
2023-01-18T12:26:03.256Z,99492.91
2023-01-18T12:28:42.870Z,99488.56
2023-01-18T12:31:26.726Z,99502.78
2023-01-18T12:34:05.994Z,99499.81
2023-01-18T12:36:52.324Z,99496.69
2023-01-18T12:39:36.028Z,99499.38
2023-01-18T12:42:06.459Z,99494.53
2023-01-18T12:44:48.678Z,99502.34
2023-01-18T12:47:32.909Z,99508.03
2023-01-18T12:50:03.392Z,99508.03
2023-01-18T12:52:36.876Z,99505.66
2023-01-18T12:55:09.597Z,99505.91
2023-01-18T12:57:37.977Z,99501.28
2023-01-18T13:00:15.398Z,99499.72
2023-01-18T13:02:49.642Z,99510.75
2023-01-18T13:05:23.217Z,99500.28
2023-01-18T13:07:58.452Z,99499.84
2023-01-18T13:10:28.743Z,99499.56
2023-01-18T13:12:58.774Z,99520.97
2023-01-18T13:15:34.307Z,99524.25
2023-01-18T13:18:09.787Z,99531.19
2023-01-18T13:20:50.289Z,99536.84
2023-01-18T13:23:32.259Z,99532.88
2023-01-18T13:26:16.630Z,99544.28
2023-01-18T13:28:49.735Z,99543.09
2023-01-18T13:31:17.872Z,99529.06
2023-01-18T13:34:00.737Z,99537.00
2023-01-18T13:36:28.899Z,99521.41
2023-01-18T13:39:01.279Z,99533.72
2023-01-18T13:41:30.988Z,99528.28
2023-01-18T13:44:07.724Z,99511.13
2023-01-18T13:46:39.510Z,99523.59
2023-01-18T13:49:37.582Z,99541.72
2023-01-18T13:52:31.411Z,99541.88
2023-01-18T13:55:06.263Z,99534.47
2023-01-18T13:57:36.690Z,99537.69
2023-01-18T14:00:07.555Z,99547.91
2023-01-18T14:02:42.543Z,99543.91
2023-01-18T14:05:25.130Z,99546.81
2023-01-18T14:07:57.232Z,99563.16
2023-01-18T14:10:30.583Z,99563.66
2023-01-18T14:13:01.051Z,99563.66
2023-01-18T14:15:48.268Z,99578.09
2023-01-18T14:18:22.960Z,99574.09
2023-01-18T14:21:06.296Z,99580.00
2023-01-18T14:24:01.009Z,99586.19
2023-01-18T14:26:31.484Z,99590.72
2023-01-18T14:29:06.700Z,99586.47
2023-01-18T14:31:39.148Z,99589.03
2023-01-18T14:34:36.748Z,99590.00
2023-01-18T14:37:28.909Z,99604.41
2023-01-18T14:40:18.923Z,99601.25
2023-01-18T14:42:50.639Z,99593.56
2023-01-18T14:45:23.057Z,99602.00
2023-01-18T14:47:51.299Z,99591.63
2023-01-18T14:50:22.760Z,99605.88
2023-01-18T14:52:54.027Z,99613.81
2023-01-18T14:55:31.445Z,99610.41
2023-01-18T14:58:05.767Z,99607.72
2023-01-18T15:00:33.901Z,99607.88
2023-01-18T15:03:03.033Z,99603.47
2023-01-18T15:05:31.717Z,99602.50
2023-01-18T15:08:01.273Z,99611.84
2023-01-18T15:10:29.559Z,99612.22
2023-01-18T15:13:00.372Z,99605.56
2023-01-18T15:15:32.634Z,99627.13
2023-01-18T15:18:10.505Z,99619.19
2023-01-18T15:20:43.000Z,99625.41
2023-01-18T15:23:14.164Z,99614.31
2023-01-18T15:25:42.785Z,99627.13
2023-01-18T15:28:23.548Z,99626.38
2023-01-18T15:30:54.011Z,99625.66
2023-01-18T15:33:38.369Z,99620.44
2023-01-18T15:36:11.031Z,99622.97
2023-01-18T15:38:41.221Z,99628.34
2023-01-18T15:41:12.653Z,99624.22
2023-01-18T15:43:44.160Z,99632.13
2023-01-18T15:47:05.138Z,99633.59
2023-01-18T15:49:33.745Z,99639.09
2023-01-18T15:52:03.199Z,99635.28
2023-01-18T15:54:36.879Z,99633.84
2023-01-18T15:57:19.546Z,99632.03
2023-01-18T15:59:49.548Z,99643.59
2023-01-18T16:02:20.685Z,99646.63
2023-01-18T16:04:49.318Z,99649.44
2023-01-18T16:07:42.502Z,99654.06
2023-01-18T16:10:28.024Z,99656.56
2023-01-18T16:12:57.712Z,99658.59
2023-01-18T16:15:28.359Z,99645.69
2023-01-18T16:18:02.521Z,99653.88
2023-01-18T16:20:32.505Z,99655.00
2023-01-18T16:23:08.653Z,99660.34
2023-01-18T16:25:38.974Z,99655.09
2023-01-18T16:28:07.075Z,99649.38
2023-01-18T16:30:38.957Z,99665.22
2023-01-18T16:33:10.989Z,99674.53
2023-01-18T16:35:40.036Z,99655.50
2023-01-18T16:38:12.523Z,99674.66
2023-01-18T16:40:44.165Z,99674.38
2023-01-18T16:43:23.337Z,99671.84
2023-01-18T16:45:52.883Z,99673.41
2023-01-18T16:48:23.406Z,99679.66
2023-01-18T16:50:52.169Z,99671.97
2023-01-18T16:53:20.962Z,99674.38
2023-01-18T16:55:50.454Z,99689.38
2023-01-18T16:58:21.368Z,99692.19
2023-01-18T17:00:58.825Z,99689.28
2023-01-18T17:03:27.866Z,99705.75
2023-01-18T17:05:58.890Z,99701.63
2023-01-18T17:08:27.451Z,99697.22
2023-01-18T17:10:57.733Z,99708.44
2023-01-18T17:13:26.506Z,99708.19
2023-01-18T17:15:54.955Z,99717.22
2023-01-18T17:18:26.146Z,99721.59
2023-01-18T17:20:55.749Z,99732.56
2023-01-18T17:23:25.739Z,99726.38
2023-01-18T17:25:54.123Z,99724.78
2023-01-18T17:28:27.004Z,99717.56
2023-01-18T17:30:55.798Z,99717.84
2023-01-18T17:33:26.643Z,99722.47
2023-01-18T17:35:55.968Z,99727.56
2023-01-18T17:38:27.954Z,99717.22
2023-01-18T17:40:57.941Z,99724.28
2023-01-18T17:43:33.753Z,99739.06
2023-01-18T17:46:04.526Z,99740.16
2023-01-18T17:48:32.942Z,99737.47
2023-01-18T17:51:01.214Z,99748.56
2023-01-18T17:53:29.711Z,99738.22
2023-01-18T17:55:57.950Z,99740.63
2023-01-18T17:58:27.642Z,99754.78
2023-01-18T18:00:56.005Z,99748.22
2023-01-18T18:03:24.116Z,99757.59
2023-01-18T18:06:14.431Z,99741.13
2023-01-18T18:08:42.757Z,99757.50
2023-01-18T18:11:12.434Z,99760.78
2023-01-18T18:13:43.910Z,99782.75
2023-01-18T18:16:18.315Z,99777.25
2023-01-18T18:18:49.690Z,99787.72
2023-01-18T18:21:18.572Z,99776.50
2023-01-18T18:23:49.682Z,99777.34
2023-01-18T18:26:17.761Z,99788.22
2023-01-18T18:28:47.815Z,99788.97
2023-01-18T18:31:17.013Z,99786.66
2023-01-18T18:33:45.534Z,99807.00
2023-01-18T18:36:13.666Z,99800.06
2023-01-18T18:38:41.978Z,99801.88
2023-01-18T18:41:10.521Z,99794.09
2023-01-18T18:43:38.580Z,99796.63
2023-01-18T18:46:08.885Z,99800.69
2023-01-18T18:48:37.232Z,99799.19
2023-01-18T18:51:05.579Z,99779.44
2023-01-18T18:53:38.492Z,99797.72
2023-01-18T18:56:10.117Z,99797.25
2023-01-18T18:58:39.154Z,99794.56
2023-01-18T19:01:18.555Z,99795.75
2023-01-18T19:03:47.360Z,99804.06
2023-01-18T19:06:18.624Z,99806.75
2023-01-18T19:08:47.382Z,99812.59
2023-01-18T19:11:19.956Z,99813.56
2023-01-18T19:13:49.632Z,99816.25
2023-01-18T19:16:20.220Z,99826.03
2023-01-18T19:18:49.246Z,99815.16
2023-01-18T19:21:18.583Z,99817.22
2023-01-18T19:23:47.413Z,99820.66
2023-01-18T19:26:16.762Z,99824.31
2023-01-18T19:29:01.736Z,99825.78
2023-01-18T19:31:39.195Z,99829.19
2023-01-18T19:34:10.682Z,99840.19
2023-01-18T19:36:39.903Z,99835.28
2023-01-18T19:39:14.686Z,99838.44
2023-01-18T19:41:50.532Z,99845.41
2023-01-18T19:44:21.745Z,99849.81
2023-01-18T19:46:57.004Z,99859.31
2023-01-18T19:49:26.971Z,99851.25
2023-01-18T19:51:55.858Z,99845.53
2023-01-18T19:54:24.404Z,99840.16
2023-01-18T19:56:53.255Z,99836.38
2023-01-18T19:59:21.630Z,99844.06
2023-01-18T20:01:52.761Z,99853.59
2023-01-18T20:04:21.156Z,99856.88
2023-01-18T20:06:49.530Z,99842.47
2023-01-18T20:09:21.202Z,99848.72
2023-01-18T20:11:51.921Z,99861.38
2023-01-18T20:14:26.250Z,99854.41
2023-01-18T20:17:00.610Z,99863.94
2023-01-18T20:19:29.316Z,99854.91
2023-01-18T20:21:58.509Z,99863.78
2023-01-18T20:24:27.540Z,99869.91
2023-01-18T20:27:07.268Z,99865.38
2023-01-18T20:29:43.353Z,99872.69
2023-01-18T20:32:17.756Z,99873.88
2023-01-18T20:34:47.474Z,99869.63
2023-01-18T20:37:17.133Z,99873.66
2023-01-18T20:39:46.385Z,99863.41
2023-01-18T20:42:15.753Z,99854.50
2023-01-18T20:44:49.128Z,99871.13
2023-01-18T20:47:18.804Z,99861.47
2023-01-18T20:49:47.201Z,99865.84
2023-01-18T20:52:15.946Z,99875.88
2023-01-18T20:54:45.632Z,99877.59
2023-01-18T20:57:17.012Z,99876.63
2023-01-18T20:59:48.674Z,99874.91
2023-01-18T21:02:20.867Z,99877.47
2023-01-18T21:04:49.362Z,99859.78
2023-01-18T21:07:17.693Z,99859.66
2023-01-18T21:09:47.063Z,99868.69
2023-01-18T21:12:15.802Z,99883.34
2023-01-18T21:14:44.968Z,99879.94
2023-01-18T21:17:13.307Z,99882.72
2023-01-18T21:19:47.148Z,99898.47
2023-01-18T21:22:16.624Z,99882.00
2023-01-18T21:24:45.118Z,99891.75
2023-01-18T21:27:14.610Z,99902.13
2023-01-18T21:29:45.706Z,99899.69
2023-01-18T21:32:14.229Z,99897.50
2023-01-18T21:34:45.343Z,99892.88
2023-01-18T21:37:14.236Z,99894.69
2023-01-18T21:39:43.474Z,99883.59
2023-01-18T21:42:30.704Z,99904.56
2023-01-18T21:45:16.299Z,99907.25
2023-01-18T21:47:46.029Z,99911.66
2023-01-18T21:50:42.860Z,99910.91
2023-01-18T21:53:35.835Z,99911.66
2023-01-18T21:56:04.775Z,99925.06
2023-01-18T21:58:51.719Z,99926.78
2023-01-18T22:01:25.560Z,99938.72
2023-01-18T22:04:13.269Z,99927.84
2023-01-18T22:07:02.019Z,99919.09
2023-01-18T22:09:34.839Z,99940.06
2023-01-18T22:12:04.914Z,99935.91
2023-01-18T22:14:36.060Z,99940.28
2023-01-18T22:17:04.549Z,99947.03
2023-01-18T22:19:36.631Z,99942.13
2023-01-18T22:22:07.129Z,99943.59
2023-01-18T22:24:36.135Z,99943.72
2023-01-18T22:27:05.736Z,99950.81
2023-01-18T22:29:34.528Z,99949.59
2023-01-18T22:32:03.116Z,99942.97
2023-01-18T22:34:31.783Z,99954.97
2023-01-18T22:37:00.838Z,99950.69
2023-01-18T22:39:31.187Z,99946.16
2023-01-18T22:41:59.504Z,99955.84
2023-01-18T22:44:28.322Z,99958.53
2023-01-18T22:46:56.671Z,99953.16
2023-01-18T22:49:24.773Z,99952.16
2023-01-18T22:51:53.153Z,99955.47
2023-01-18T22:54:23.176Z,99957.03
2023-01-18T22:56:53.209Z,99957.78
2023-01-18T22:59:21.553Z,99958.03
2023-01-18T23:01:49.831Z,99947.66
2023-01-18T23:04:19.317Z,99942.28
2023-01-18T23:06:51.110Z,99946.78
2023-01-18T23:09:19.761Z,99952.16
2023-01-18T23:11:49.066Z,99962.41
2023-01-18T23:14:36.593Z,99963.41
2023-01-18T23:17:22.449Z,99958.66
2023-01-18T23:19:50.641Z,99953.66
2023-01-18T23:22:18.915Z,99939.47
2023-01-18T23:24:47.393Z,99957.28
2023-01-18T23:27:15.648Z,99966.72
2023-01-18T23:29:46.756Z,99966.94
2023-01-18T23:32:15.324Z,99962.66
2023-01-18T23:34:50.900Z,99968.38
2023-01-18T23:37:19.116Z,99963.59
2023-01-18T23:40:04.746Z,99973.13
2023-01-18T23:42:50.526Z,99957.91
2023-01-18T23:45:38.240Z,99953.88
2023-01-18T23:48:28.375Z,99958.03
2023-01-18T23:51:13.999Z,99950.00
2023-01-18T23:54:00.096Z,99970.13
2023-01-18T23:56:29.913Z,99959.97
2023-01-18T23:58:58.401Z,99968.78
